createdAt,value
2018-07-08T00:00:54.802Z,74.98
2018-07-08T00:01:54.814Z,74.98
2018-07-08T00:02:54.832Z,74.89
2018-07-08T00:03:54.849Z,75.14
2018-07-08T00:04:54.889Z,75.14
2018-07-08T00:05:54.886Z,75.08
2018-07-08T00:06:54.896Z,75.14
2018-07-08T00:07:54.920Z,76.10
2018-07-08T00:08:54.928Z,76.04
2018-07-08T00:09:54.956Z,75.43
2018-07-08T00:10:54.961Z,75.18
2018-07-08T00:11:54.976Z,75.04
2018-07-08T00:12:54.993Z,75.43
2018-07-08T00:13:55.008Z,75.71
2018-07-08T00:14:55.024Z,75.33
2018-07-08T00:15:55.043Z,75.90
2018-07-08T00:16:55.061Z,75.62
2018-07-08T00:17:55.073Z,75.81
2018-07-08T00:18:55.094Z,75.62
2018-07-08T00:19:55.107Z,76.10
2018-07-08T00:20:55.123Z,75.71
2018-07-08T00:21:55.139Z,75.71
2018-07-08T00:22:55.156Z,75.71
2018-07-08T00:23:55.199Z,76.10
2018-07-08T00:24:55.251Z,76.39
2018-07-08T00:25:55.204Z,76.19
2018-07-08T00:26:56.666Z,76.19
2018-07-08T00:27:55.331Z,76.00
2018-07-08T00:28:55.301Z,76.48
2018-07-08T00:29:55.337Z,76.10
2018-07-08T00:30:55.429Z,76.57
2018-07-08T00:31:55.295Z,76.29
2018-07-08T00:32:55.311Z,76.77
2018-07-08T00:33:55.326Z,76.57
2018-07-08T00:34:55.342Z,76.67
2018-07-08T00:35:55.370Z,77.06
2018-07-08T00:36:55.373Z,76.57
2018-07-08T00:37:55.393Z,77.06
2018-07-08T00:38:55.405Z,76.57
2018-07-08T00:39:55.475Z,76.57
2018-07-08T00:40:55.439Z,76.96
2018-07-08T00:41:55.457Z,77.15
2018-07-08T00:42:55.471Z,77.25
2018-07-08T00:43:55.484Z,77.34
2018-07-08T00:44:55.500Z,77.73
2018-07-08T00:45:55.527Z,77.92
2018-07-08T00:46:55.532Z,77.25
2018-07-08T00:47:55.553Z,77.50
2018-07-08T00:48:55.565Z,77.97
2018-07-08T00:49:55.581Z,77.69
2018-07-08T00:50:55.597Z,77.97
2018-07-08T00:51:55.613Z,78.27
2018-07-08T00:52:55.933Z,78.17
2018-07-08T00:53:55.645Z,77.88
2018-07-08T00:54:55.660Z,78.07
2018-07-08T00:55:55.679Z,78.45
2018-07-08T00:56:55.697Z,77.88
2018-07-08T00:57:55.753Z,78.27
2018-07-08T00:58:56.122Z,78.17
2018-07-08T00:59:55.760Z,78.27
2018-07-08T01:00:55.755Z,78.36
2018-07-08T01:01:55.771Z,78.45
2018-07-08T01:02:55.785Z,78.45
2018-07-08T01:03:55.801Z,78.64
2018-07-08T01:04:55.816Z,78.17
2018-07-08T01:05:55.833Z,78.36
2018-07-08T01:06:55.847Z,78.45
2018-07-08T01:07:55.866Z,78.45
2018-07-08T01:08:55.879Z,78.36
2018-07-08T01:09:55.900Z,78.84
2018-07-08T01:10:55.924Z,79.13
2018-07-08T01:11:55.929Z,78.93
2018-07-08T01:12:55.945Z,78.93
2018-07-08T01:13:55.963Z,78.93
2018-07-08T01:14:55.973Z,79.03
2018-07-08T01:15:56.088Z,79.51
2018-07-08T01:16:56.015Z,78.93
2018-07-08T01:17:56.021Z,78.84
2018-07-08T01:18:56.038Z,79.03
2018-07-08T01:19:56.052Z,79.03
2018-07-08T01:20:56.072Z,79.32
2018-07-08T01:21:56.084Z,79.60
2018-07-08T01:22:56.104Z,79.51
2018-07-08T01:23:56.115Z,79.89
2018-07-08T01:24:56.132Z,80.08
2018-07-08T01:25:56.150Z,79.80
2018-07-08T01:26:56.163Z,79.70
2018-07-08T01:27:56.178Z,79.89
2018-07-08T01:28:56.201Z,80.27
2018-07-08T01:29:56.211Z,79.85
2018-07-08T01:30:56.231Z,80.08
2018-07-08T01:31:56.283Z,80.33
2018-07-08T01:32:57.498Z,80.24
2018-07-08T01:33:56.311Z,80.33
2018-07-08T01:34:56.288Z,80.43
2018-07-08T01:35:56.305Z,81.00
2018-07-08T01:36:56.319Z,81.00
2018-07-08T01:37:56.338Z,81.00
2018-07-08T01:38:56.354Z,80.90
2018-07-08T01:39:56.369Z,80.52
2018-07-08T01:40:56.383Z,80.81
2018-07-08T01:41:56.403Z,81.48
2018-07-08T01:42:56.413Z,81.20
2018-07-08T01:43:56.429Z,81.10
2018-07-08T01:44:56.443Z,81.38
2018-07-08T01:45:56.468Z,81.29
2018-07-08T01:46:56.475Z,81.38
2018-07-08T01:47:56.501Z,81.29
2018-07-08T01:48:56.508Z,81.29
2018-07-08T01:49:56.526Z,81.48
2018-07-08T01:50:56.540Z,81.48
2018-07-08T01:51:56.557Z,81.96
2018-07-08T01:52:56.570Z,81.96
2018-07-08T01:53:56.589Z,81.77
2018-07-08T01:54:56.601Z,82.15
2018-07-08T01:55:56.618Z,82.15
2018-07-08T01:56:56.632Z,81.77
2018-07-08T01:57:56.653Z,81.77
2018-07-08T01:58:56.668Z,81.57
2018-07-08T01:59:56.677Z,81.86
2018-07-08T02:00:56.695Z,81.67
2018-07-08T02:01:56.743Z,81.57
2018-07-08T02:02:56.730Z,82.63
2018-07-08T02:03:56.743Z,82.59
2018-07-08T02:04:56.758Z,82.73
2018-07-08T02:05:56.775Z,82.82
2018-07-08T02:06:56.856Z,82.43
2018-07-08T02:07:56.884Z,82.34
2018-07-08T02:08:57.279Z,82.63
2018-07-08T02:09:56.836Z,82.63
2018-07-08T02:10:56.850Z,82.68
2018-07-08T02:11:56.864Z,83.11
2018-07-08T02:12:56.882Z,82.53
2018-07-08T02:13:56.902Z,82.63
2018-07-08T02:14:56.921Z,83.01
2018-07-08T02:15:56.928Z,82.43
2018-07-08T02:16:56.944Z,82.43
2018-07-08T02:17:56.961Z,82.73
2018-07-08T02:18:56.980Z,82.53
2018-07-08T02:19:56.992Z,82.63
2018-07-08T02:20:57.005Z,82.34
2018-07-08T02:21:57.023Z,82.34
2018-07-08T02:22:57.039Z,82.34
2018-07-08T02:23:57.057Z,82.53
2018-07-08T02:24:57.071Z,81.96
2018-07-08T02:25:57.085Z,82.34
2018-07-08T02:26:57.101Z,82.53
2018-07-08T02:27:57.117Z,82.15
2018-07-08T02:28:57.133Z,82.53
2018-07-08T02:29:57.153Z,82.40
2018-07-08T02:30:57.166Z,82.63
2018-07-08T02:31:57.182Z,82.73
2018-07-08T02:32:57.195Z,82.63
2018-07-08T02:33:57.218Z,82.87
2018-07-08T02:34:57.228Z,83.06
2018-07-08T02:35:57.252Z,82.97
2018-07-08T02:36:57.263Z,82.68
2018-07-08T02:37:57.276Z,83.06
2018-07-08T02:38:57.339Z,83.64
2018-07-08T02:39:57.325Z,83.54
2018-07-08T02:40:57.332Z,83.83
2018-07-08T02:41:57.334Z,83.45
2018-07-08T02:42:57.349Z,83.93
2018-07-08T02:43:57.366Z,83.54
2018-07-08T02:44:57.382Z,82.87
2018-07-08T02:45:57.397Z,83.83
2018-07-08T02:46:57.414Z,83.45
2018-07-08T02:47:57.432Z,83.93
2018-07-08T02:48:57.444Z,84.22
2018-07-08T02:49:57.464Z,84.41
2018-07-08T02:50:57.472Z,85.08
2018-07-08T02:51:57.489Z,84.79
2018-07-08T02:52:57.511Z,84.79
2018-07-08T02:53:57.521Z,84.79
2018-07-08T02:54:57.537Z,84.88
2018-07-08T02:55:57.553Z,84.98
2018-07-08T02:56:57.568Z,84.79
2018-07-08T02:57:57.582Z,84.69
2018-07-08T02:58:57.597Z,84.88
2018-07-08T02:59:57.629Z,84.41
2018-07-08T03:00:57.630Z,84.59
2018-07-08T03:01:57.642Z,84.02
2018-07-08T03:02:57.659Z,84.69
2018-07-08T03:03:57.676Z,84.69
2018-07-08T03:04:57.689Z,84.98
2018-07-08T03:05:57.706Z,84.69
2018-07-08T03:06:57.723Z,84.69
2018-07-08T03:07:57.737Z,84.79
2018-07-08T03:08:57.752Z,85.46
2018-07-08T03:09:57.765Z,85.36
2018-07-08T03:10:57.786Z,85.08
2018-07-08T03:11:57.798Z,84.98
2018-07-08T03:12:57.821Z,85.36
2018-07-08T03:13:57.846Z,85.27
2018-07-08T03:14:57.844Z,84.59
2018-07-08T03:15:57.866Z,85.27
2018-07-08T03:16:57.879Z,84.88
2018-07-08T03:17:57.889Z,84.88
2018-07-08T03:18:57.912Z,84.59
2018-07-08T03:19:57.920Z,84.88
2018-07-08T03:20:57.936Z,84.59
2018-07-08T03:21:57.955Z,84.88
2018-07-08T03:22:57.968Z,85.17
2018-07-08T03:23:57.983Z,85.27
2018-07-08T03:24:57.993Z,84.88
2018-07-08T03:25:58.012Z,84.88
2018-07-08T03:26:58.021Z,84.88
2018-07-08T03:27:58.034Z,84.59
2018-07-08T03:28:58.051Z,84.59
2018-07-08T03:29:58.070Z,84.69
2018-07-08T03:30:58.087Z,85.17
2018-07-08T03:31:58.100Z,85.27
2018-07-08T03:32:58.112Z,84.88
2018-07-08T03:33:58.129Z,84.50
2018-07-08T03:34:58.143Z,85.08
2018-07-08T03:35:58.159Z,85.17
2018-07-08T03:36:58.177Z,85.75
2018-07-08T03:37:58.189Z,86.04
2018-07-08T03:38:58.203Z,85.55
2018-07-08T03:39:58.225Z,85.36
2018-07-08T03:40:58.234Z,85.55
2018-07-08T03:41:58.252Z,85.55
2018-07-08T03:42:58.318Z,85.55
2018-07-08T03:43:58.280Z,85.36
2018-07-08T03:44:58.300Z,84.98
2018-07-08T03:45:58.313Z,85.46
2018-07-08T03:46:58.326Z,86.04
2018-07-08T03:47:58.340Z,85.17
2018-07-08T03:48:58.357Z,85.27
2018-07-08T03:49:58.373Z,85.08
2018-07-08T03:50:58.388Z,84.59
2018-07-08T03:51:58.406Z,85.17
2018-07-08T03:52:58.419Z,84.98
2018-07-08T03:53:58.435Z,84.79
2018-07-08T03:54:58.450Z,85.75
2018-07-08T03:55:58.465Z,85.94
2018-07-08T03:56:58.480Z,85.84
2018-07-08T03:57:58.495Z,85.84
2018-07-08T03:58:58.511Z,86.13
2018-07-08T03:59:58.525Z,85.84
2018-07-08T04:00:58.541Z,85.27
2018-07-08T04:01:58.557Z,85.55
2018-07-08T04:02:58.573Z,86.41
2018-07-08T04:03:58.591Z,86.28
2018-07-08T04:04:58.622Z,86.13
2018-07-08T04:05:58.622Z,86.32
2018-07-08T04:06:58.633Z,86.08
2018-07-08T04:07:58.649Z,86.22
2018-07-08T04:08:58.663Z,86.08
2018-07-08T04:09:58.683Z,86.22
2018-07-08T04:10:58.695Z,85.94
2018-07-08T04:11:58.715Z,86.18
2018-07-08T04:12:58.732Z,86.32
2018-07-08T04:13:58.740Z,86.41
2018-07-08T04:14:58.756Z,86.32
2018-07-08T04:15:58.814Z,86.32
2018-07-08T04:16:58.787Z,86.41
2018-07-08T04:17:58.812Z,86.04
2018-07-08T04:18:58.817Z,86.32
2018-07-08T04:19:58.832Z,85.84
2018-07-08T04:20:58.901Z,85.75
2018-07-08T04:21:58.866Z,85.94
2018-07-08T04:22:58.879Z,86.22
2018-07-08T04:23:59.207Z,86.41
2018-07-08T04:24:58.910Z,86.41
2018-07-08T04:25:58.976Z,86.22
2018-07-08T04:26:58.941Z,85.84
2018-07-08T04:27:58.970Z,85.94
2018-07-08T04:28:58.972Z,86.41
2018-07-08T04:29:58.987Z,86.04
2018-07-08T04:30:59.000Z,86.13
2018-07-08T04:31:59.016Z,86.04
2018-07-08T04:32:59.031Z,86.32
2018-07-08T04:33:59.050Z,85.84
2018-07-08T04:34:59.062Z,86.32
2018-07-08T04:35:59.091Z,86.04
2018-07-08T04:36:59.093Z,85.88
2018-07-08T04:37:59.120Z,84.74
2018-07-08T04:38:59.124Z,84.06
2018-07-08T04:39:59.140Z,84.35
2018-07-08T04:40:59.154Z,84.45
2018-07-08T04:41:59.174Z,84.83
2018-07-08T04:42:59.185Z,84.83
2018-07-08T04:43:59.202Z,85.41
2018-07-08T04:44:59.232Z,84.98
2018-07-08T04:45:59.232Z,85.21
2018-07-08T04:46:59.251Z,85.31
2018-07-08T04:47:59.263Z,84.83
2018-07-08T04:48:59.318Z,85.17
2018-07-08T04:49:59.324Z,85.84
2018-07-08T04:50:59.348Z,85.98
2018-07-08T04:51:59.325Z,85.50
2018-07-08T04:52:59.341Z,85.12
2018-07-08T04:53:59.356Z,84.92
2018-07-08T04:54:59.370Z,84.92
2018-07-08T04:55:59.388Z,84.64
2018-07-08T04:56:59.401Z,85.41
2018-07-08T04:57:59.418Z,85.12
2018-07-08T04:58:59.433Z,85.31
2018-07-08T04:59:59.448Z,85.21
2018-07-08T05:00:59.484Z,85.50
2018-07-08T05:01:59.481Z,85.02
2018-07-08T05:02:59.495Z,85.69
2018-07-08T05:03:59.521Z,85.31
2018-07-08T05:04:59.528Z,85.31
2018-07-08T05:05:59.548Z,84.55
2018-07-08T05:06:59.576Z,84.16
2018-07-08T05:07:59.571Z,84.55
2018-07-08T05:08:59.589Z,84.35
2018-07-08T05:09:59.604Z,83.97
2018-07-08T05:10:59.618Z,84.26
2018-07-08T05:11:59.634Z,84.35
2018-07-08T05:12:59.652Z,84.83
2018-07-08T05:13:59.666Z,84.92
2018-07-08T05:14:59.692Z,84.92
2018-07-08T05:15:59.696Z,85.69
2018-07-08T05:16:59.722Z,84.92
2018-07-08T05:17:59.735Z,85.21
2018-07-08T05:18:59.942Z,84.83
2018-07-08T05:19:59.759Z,85.41
2018-07-08T05:20:59.801Z,85.50
2018-07-08T05:21:59.835Z,85.79
2018-07-08T05:22:59.804Z,85.12
2018-07-08T05:23:59.821Z,85.12
2018-07-08T05:24:59.843Z,84.92
2018-07-08T05:25:59.855Z,85.21
2018-07-08T05:26:59.866Z,85.21
2018-07-08T05:27:59.882Z,85.41
2018-07-08T05:28:59.901Z,85.12
2018-07-08T05:29:59.915Z,84.83
2018-07-08T05:30:59.926Z,84.97
2018-07-08T05:31:59.946Z,84.97
2018-07-08T05:32:59.960Z,84.97
2018-07-08T05:33:59.975Z,85.06
2018-07-08T05:34:59.991Z,84.78
2018-07-08T05:36:00.010Z,84.88
2018-07-08T05:37:00.033Z,84.78
2018-07-08T05:38:00.039Z,84.11
2018-07-08T05:39:00.056Z,84.88
2018-07-08T05:40:00.073Z,84.97
2018-07-08T05:41:00.086Z,84.78
2018-07-08T05:42:00.099Z,84.68
2018-07-08T05:43:00.118Z,84.68
2018-07-08T05:44:00.129Z,84.68
2018-07-08T05:45:00.147Z,84.88
2018-07-08T05:46:00.162Z,84.88
2018-07-08T05:47:00.177Z,85.45
2018-07-08T05:48:00.194Z,84.68
2018-07-08T05:49:00.208Z,85.45
2018-07-08T05:50:00.224Z,84.78
2018-07-08T05:51:00.237Z,84.78
2018-07-08T05:52:00.255Z,85.16
2018-07-08T05:53:00.270Z,85.74
2018-07-08T05:54:00.437Z,85.54
2018-07-08T05:55:00.467Z,85.25
2018-07-08T05:56:00.360Z,85.06
2018-07-08T05:57:00.383Z,84.68
2018-07-08T05:58:00.631Z,84.88
2018-07-08T05:59:00.363Z,84.63
2018-07-08T06:00:00.378Z,84.72
2018-07-08T06:01:00.395Z,84.30
2018-07-08T06:02:00.410Z,83.95
2018-07-08T06:03:00.444Z,84.25
2018-07-08T06:04:00.441Z,83.86
2018-07-08T06:05:00.457Z,84.05
2018-07-08T06:06:00.473Z,84.44
2018-07-08T06:07:00.486Z,83.86
2018-07-08T06:08:00.501Z,83.48
2018-07-08T06:09:00.525Z,83.19
2018-07-08T06:10:00.535Z,83.29
2018-07-08T06:11:00.553Z,83.09
2018-07-08T06:12:00.569Z,82.90
2018-07-08T06:13:00.586Z,82.90
2018-07-08T06:14:00.599Z,83.48
2018-07-08T06:15:00.612Z,83.29
2018-07-08T06:16:00.627Z,83.48
2018-07-08T06:17:00.643Z,83.00
2018-07-08T06:18:00.672Z,83.00
2018-07-08T06:19:00.673Z,82.90
2018-07-08T06:20:00.692Z,82.52
2018-07-08T06:21:00.705Z,82.62
2018-07-08T06:22:00.728Z,82.42
2018-07-08T06:23:00.736Z,81.98
2018-07-08T06:24:00.753Z,81.37
2018-07-08T06:25:00.772Z,82.04
2018-07-08T06:26:00.851Z,82.04
2018-07-08T06:27:01.002Z,82.32
2018-07-08T06:28:00.823Z,81.56
2018-07-08T06:29:00.830Z,82.18
2018-07-08T06:30:00.961Z,81.51
2018-07-08T06:31:00.948Z,81.27
2018-07-08T06:32:00.878Z,81.70
2018-07-08T06:33:00.899Z,81.60
2018-07-08T06:34:00.910Z,81.02
2018-07-08T06:35:00.964Z,81.66
2018-07-08T06:36:00.942Z,82.52
2018-07-08T06:37:00.959Z,82.52
2018-07-08T06:38:00.986Z,82.62
2018-07-08T06:39:00.988Z,82.42
2018-07-08T06:40:01.034Z,82.32
2018-07-08T06:41:01.021Z,82.90
2018-07-08T06:42:01.035Z,81.85
2018-07-08T06:43:01.052Z,81.22
2018-07-08T06:44:01.067Z,81.02
2018-07-08T06:45:01.085Z,80.64
2018-07-08T06:46:01.098Z,81.31
2018-07-08T06:47:01.113Z,80.74
2018-07-08T06:48:01.131Z,80.26
2018-07-08T06:49:01.145Z,80.26
2018-07-08T06:50:01.163Z,80.16
2018-07-08T06:51:01.183Z,80.45
2018-07-08T06:52:01.210Z,80.16
2018-07-08T06:53:01.210Z,79.49
2018-07-08T06:54:01.224Z,79.78
2018-07-08T06:55:01.244Z,79.82
2018-07-08T06:56:01.253Z,79.24
2018-07-08T06:57:01.270Z,79.63
2018-07-08T06:58:01.295Z,78.47
2018-07-08T06:59:01.302Z,78.19
2018-07-08T07:00:01.316Z,78.19
2018-07-08T07:01:01.349Z,78.63
2018-07-08T07:02:01.350Z,79.11
2018-07-08T07:03:01.377Z,79.30
2018-07-08T07:05:01.411Z,79.59
2018-07-08T07:06:01.463Z,80.35
2018-07-08T07:07:01.531Z,78.96
2018-07-08T07:08:01.992Z,78.19
2018-07-08T07:09:01.469Z,78.00
2018-07-08T07:10:01.475Z,77.90
2018-07-08T07:11:01.710Z,77.04
2018-07-08T07:12:01.520Z,76.94
2018-07-08T07:13:01.525Z,76.56
2018-07-08T07:14:01.547Z,76.17
2018-07-08T07:15:01.554Z,76.37
2018-07-08T07:16:01.622Z,76.56
2018-07-08T07:17:01.586Z,75.50
2018-07-08T07:18:01.602Z,75.79
2018-07-08T07:19:01.621Z,75.40
2018-07-08T07:20:01.633Z,76.56
2018-07-08T07:21:01.654Z,77.23
2018-07-08T07:22:01.670Z,77.04
2018-07-08T07:23:01.738Z,77.04
2018-07-08T07:24:01.706Z,76.27
2018-07-08T07:25:01.713Z,75.40
2018-07-08T07:26:01.732Z,75.89
2018-07-08T07:27:01.751Z,76.07
2018-07-08T07:28:01.764Z,76.27
2018-07-08T07:29:01.783Z,76.56
2018-07-08T07:30:01.794Z,76.65
2018-07-08T07:31:01.809Z,76.17
2018-07-08T07:32:01.831Z,75.98
2018-07-08T07:33:01.847Z,76.17
2018-07-08T07:34:01.855Z,75.15
2018-07-08T07:35:01.871Z,74.83
2018-07-08T07:36:01.899Z,74.35
2018-07-08T07:37:01.925Z,74.96
2018-07-08T07:38:01.994Z,74.58
2018-07-08T07:39:02.259Z,74.10
2018-07-08T07:40:02.081Z,74.10
2018-07-08T07:41:02.323Z,72.28
2018-07-08T07:42:01.982Z,72.28
2018-07-08T07:43:01.999Z,71.61
2018-07-08T07:44:02.016Z,71.70
2018-07-08T07:45:02.093Z,72.47
2018-07-08T07:46:02.047Z,72.47
2018-07-08T07:47:02.064Z,71.64
2018-07-08T07:48:02.077Z,71.55
2018-07-08T07:49:02.173Z,70.58
2018-07-08T07:50:02.111Z,70.29
2018-07-08T07:51:02.130Z,71.64
2018-07-08T07:52:02.141Z,70.78
2018-07-08T07:53:02.161Z,71.51
2018-07-08T07:54:02.177Z,71.89
2018-07-08T07:55:02.190Z,72.28
2018-07-08T07:56:02.208Z,72.37
2018-07-08T07:57:02.222Z,73.08
2018-07-08T07:58:02.238Z,72.18
2018-07-08T07:59:02.318Z,71.73
2018-07-08T08:00:02.269Z,71.83
2018-07-08T08:01:02.285Z,71.93
2018-07-08T08:02:02.300Z,71.55
2018-07-08T08:03:02.324Z,71.45
2018-07-08T08:05:02.348Z,69.91
2018-07-08T08:07:02.381Z,70.29
2018-07-08T08:08:02.551Z,69.66
2018-07-08T08:09:02.412Z,69.27
2018-07-08T08:10:02.435Z,69.08
2018-07-08T08:11:02.454Z,68.89
2018-07-08T08:12:02.461Z,68.98
2018-07-08T08:13:02.497Z,68.60
2018-07-08T08:14:02.563Z,68.51
2018-07-08T08:15:02.743Z,68.70
2018-07-08T08:16:02.522Z,68.12
2018-07-08T08:17:02.548Z,67.07
2018-07-08T08:18:02.560Z,66.30
2018-07-08T08:19:02.582Z,66.39
2018-07-08T08:20:02.589Z,66.30
2018-07-08T08:21:02.640Z,65.43
2018-07-08T08:22:02.623Z,63.51
2018-07-08T08:23:02.637Z,63.92
2018-07-08T08:24:02.656Z,63.83
2018-07-08T08:25:02.666Z,64.50
2018-07-08T08:26:02.684Z,64.60
2018-07-08T08:27:02.701Z,64.69
2018-07-08T08:28:02.715Z,64.69
2018-07-08T08:29:02.889Z,64.31
2018-07-08T08:30:02.755Z,63.35
2018-07-08T08:31:02.790Z,63.45
2018-07-08T08:32:02.830Z,63.54
2018-07-08T08:33:02.803Z,63.64
2018-07-08T08:34:02.814Z,63.64
2018-07-08T08:35:02.834Z,63.73
2018-07-08T08:36:02.845Z,63.54
2018-07-08T08:37:02.864Z,64.50
2018-07-08T08:38:02.880Z,63.92
2018-07-08T08:39:02.892Z,63.35
2018-07-08T08:40:02.961Z,62.58
2018-07-08T08:41:03.054Z,61.84
2018-07-08T08:42:03.394Z,61.94
2018-07-08T08:43:02.956Z,61.16
2018-07-08T08:44:02.976Z,61.46
2018-07-08T08:45:02.995Z,61.65
2018-07-08T08:46:03.066Z,62.13
2018-07-08T08:47:03.105Z,59.05
2018-07-08T08:48:03.039Z,58.28
2018-07-08T08:49:03.053Z,58.37
2018-07-08T08:50:03.066Z,57.80
2018-07-08T08:51:03.104Z,57.54
2018-07-08T08:52:03.099Z,56.67
2018-07-08T08:53:03.126Z,56.67
2018-07-08T08:54:03.133Z,57.15
2018-07-08T08:55:03.149Z,58.37
2018-07-08T08:56:03.165Z,58.50
2018-07-08T08:57:03.183Z,59.37
2018-07-08T08:58:03.201Z,59.08
2018-07-08T08:59:03.422Z,59.08
2018-07-08T09:00:03.245Z,59.17
2018-07-08T09:01:03.281Z,58.98
2018-07-08T09:02:03.265Z,58.47
2018-07-08T09:03:03.281Z,58.79
2018-07-08T09:04:03.297Z,58.50
2018-07-08T09:05:03.312Z,59.37
2018-07-08T09:06:03.334Z,59.27
2018-07-08T09:07:03.348Z,58.50
2018-07-08T09:08:03.361Z,57.35
2018-07-08T09:09:03.374Z,57.35
2018-07-08T09:10:03.390Z,56.51
2018-07-08T09:11:03.450Z,55.83
2018-07-08T09:12:03.469Z,55.55
2018-07-08T09:13:03.441Z,56.03
2018-07-08T09:14:03.561Z,54.87
2018-07-08T09:15:03.578Z,54.87
2018-07-08T09:16:03.500Z,54.10
2018-07-08T09:17:03.509Z,53.81
2018-07-08T09:18:03.562Z,54.22
2018-07-08T09:19:03.538Z,55.00
2018-07-08T09:20:03.555Z,54.80
2018-07-08T09:21:03.569Z,53.55
2018-07-08T09:22:03.590Z,54.10
2018-07-08T09:23:03.610Z,54.13
2018-07-08T09:24:03.677Z,53.45
2018-07-08T09:25:03.640Z,54.03
2018-07-08T09:26:03.655Z,53.45
2018-07-08T09:27:03.675Z,54.13
2018-07-08T09:28:03.687Z,54.13
2018-07-08T09:29:03.700Z,54.22
2018-07-08T09:30:03.726Z,53.29
2018-07-08T09:31:03.737Z,53.00
2018-07-08T09:32:03.764Z,53.39
2018-07-08T09:33:03.774Z,52.59
2018-07-08T09:34:03.784Z,52.04
2018-07-08T09:35:03.798Z,51.46
2018-07-08T09:36:03.816Z,50.88
2018-07-08T09:37:03.832Z,51.26
2018-07-08T09:38:03.859Z,50.21
2018-07-08T09:39:03.905Z,49.24
2018-07-08T09:40:03.884Z,48.66
2018-07-08T09:41:03.904Z,49.05
2018-07-08T09:42:03.974Z,49.05
2018-07-08T09:43:03.982Z,48.47
2018-07-08T09:44:04.051Z,49.91
2018-07-08T09:45:03.991Z,48.79
2018-07-08T09:46:04.168Z,49.94
2018-07-08T09:48:04.208Z,47.92
2018-07-08T09:49:04.031Z,48.21
2018-07-08T09:50:04.086Z,48.21
2018-07-08T09:51:04.135Z,48.11
2018-07-08T09:52:04.092Z,47.85
2018-07-08T09:53:04.093Z,45.89
2018-07-08T09:54:04.125Z,45.79
2018-07-08T09:55:04.137Z,45.79
2018-07-08T09:56:04.141Z,46.28
2018-07-08T09:57:04.157Z,46.28
2018-07-08T09:58:04.211Z,45.79
2018-07-08T09:59:04.216Z,46.20
2018-07-08T10:00:04.210Z,46.01
2018-07-08T10:01:04.233Z,44.35
2018-07-08T10:02:04.242Z,44.54
2018-07-08T10:03:04.259Z,44.73
2018-07-08T10:04:04.278Z,45.51
2018-07-08T10:05:04.293Z,45.99
2018-07-08T10:06:04.334Z,44.95
2018-07-08T10:07:04.327Z,44.85
2018-07-08T10:08:04.360Z,44.46
2018-07-08T10:09:04.360Z,44.46
2018-07-08T10:10:04.375Z,43.91
2018-07-08T10:11:04.395Z,43.81
2018-07-08T10:12:04.414Z,43.33
2018-07-08T10:13:04.426Z,43.33
2018-07-08T10:14:04.449Z,43.24
2018-07-08T10:15:04.462Z,42.00
2018-07-08T10:16:04.473Z,40.63
2018-07-08T10:17:04.597Z,40.34
2018-07-08T10:18:04.550Z,40.17
2018-07-08T10:19:04.527Z,40.92
2018-07-08T10:20:04.588Z,40.92
2018-07-08T10:21:04.561Z,41.11
2018-07-08T10:22:04.576Z,41.30
2018-07-08T10:23:04.731Z,42.27
2018-07-08T10:25:04.720Z,41.40
2018-07-08T10:26:04.643Z,41.69
2018-07-08T10:27:04.685Z,41.81
2018-07-08T10:28:04.677Z,42.27
2018-07-08T10:29:04.774Z,42.00
2018-07-08T10:30:04.746Z,42.18
2018-07-08T10:31:04.745Z,41.98
2018-07-08T10:32:04.868Z,42.19
2018-07-08T10:33:04.767Z,42.10
2018-07-08T10:34:04.792Z,41.61
2018-07-08T10:35:04.790Z,40.55
2018-07-08T10:36:04.812Z,40.45
2018-07-08T10:37:04.827Z,41.20
2018-07-08T10:38:04.869Z,41.30
2018-07-08T10:39:04.861Z,41.98
2018-07-08T10:40:04.876Z,42.48
2018-07-08T10:41:04.892Z,42.10
2018-07-08T10:42:04.909Z,42.12
2018-07-08T10:43:04.920Z,42.02
2018-07-08T10:44:04.936Z,42.70
2018-07-08T10:45:04.971Z,42.31
2018-07-08T10:46:04.974Z,42.02
2018-07-08T10:47:04.988Z,42.02
2018-07-08T10:48:05.007Z,41.73
2018-07-08T10:49:05.025Z,41.54
2018-07-08T10:50:05.090Z,41.54
2018-07-08T10:51:05.055Z,41.85
2018-07-08T10:52:05.087Z,40.59
2018-07-08T10:53:05.218Z,39.62
2018-07-08T10:54:05.113Z,39.12
2018-07-08T10:55:05.122Z,39.99
2018-07-08T10:56:05.144Z,40.19
2018-07-08T10:57:05.215Z,40.19
2018-07-08T10:58:05.575Z,39.82
2018-07-08T10:59:05.251Z,41.08
2018-07-08T11:00:05.206Z,40.86
2018-07-08T11:01:05.225Z,40.86
2018-07-08T11:02:05.242Z,41.35
2018-07-08T11:03:05.260Z,42.14
2018-07-08T11:04:05.274Z,41.56
2018-07-08T11:05:05.502Z,42.25
2018-07-08T11:06:05.407Z,41.09
2018-07-08T11:07:05.325Z,40.50
2018-07-08T11:08:05.396Z,40.11
2018-07-08T11:09:05.570Z,40.88
2018-07-08T11:10:05.399Z,40.59
2018-07-08T11:11:05.393Z,38.97
2018-07-08T11:12:05.415Z,40.32
2018-07-08T11:13:05.432Z,39.67
2018-07-08T11:14:05.444Z,39.74
2018-07-08T11:15:05.465Z,39.95
2018-07-08T11:16:05.787Z,40.15
2018-07-08T11:17:05.496Z,39.95
2018-07-08T11:18:05.513Z,40.25
2018-07-08T11:19:05.534Z,40.53
2018-07-08T11:20:05.547Z,40.25
2018-07-08T11:21:05.566Z,40.83
2018-07-08T11:23:05.609Z,40.63
2018-07-08T11:24:05.619Z,40.34
2018-07-08T11:25:05.635Z,40.73
2018-07-08T11:26:05.653Z,41.02
2018-07-08T11:27:06.174Z,39.37
2018-07-08T11:28:05.688Z,39.95
2018-07-08T11:29:05.704Z,40.34
2018-07-08T11:30:05.782Z,40.32
2018-07-08T11:31:05.812Z,41.09
2018-07-08T11:32:05.815Z,40.25
2018-07-08T11:33:05.800Z,40.73
2018-07-08T11:34:05.791Z,40.34
2018-07-08T11:35:05.807Z,38.33
2018-07-08T11:36:05.826Z,38.43
2018-07-08T11:37:05.845Z,38.04
2018-07-08T11:38:05.858Z,38.23
2018-07-08T11:39:05.877Z,38.81
2018-07-08T11:40:05.893Z,36.10
2018-07-08T11:41:05.950Z,36.86
2018-07-08T11:42:05.932Z,37.07
2018-07-08T11:43:05.945Z,36.49
2018-07-08T11:44:05.967Z,37.07
2018-07-08T11:45:05.982Z,37.17
2018-07-08T11:46:06.005Z,38.54
2018-07-08T11:47:06.016Z,37.19
2018-07-08T11:48:06.035Z,36.70
2018-07-08T11:49:06.052Z,36.90
2018-07-08T11:50:06.071Z,40.19
2018-07-08T11:51:06.087Z,37.09
2018-07-08T11:52:06.116Z,36.22
2018-07-08T11:53:06.325Z,36.22
2018-07-08T11:54:06.139Z,36.12
2018-07-08T11:55:06.158Z,38.73
2018-07-08T11:56:06.187Z,36.99
2018-07-08T11:57:06.199Z,35.44
2018-07-08T11:58:06.215Z,35.83
2018-07-08T11:59:06.229Z,36.22
2018-07-08T12:00:06.250Z,36.32
2018-07-08T12:01:06.275Z,35.27
2018-07-08T12:02:06.286Z,35.85
2018-07-08T12:03:06.300Z,34.78
2018-07-08T12:04:06.379Z,35.66
2018-07-08T12:05:06.432Z,36.14
2018-07-08T12:06:06.396Z,35.93
2018-07-08T12:07:06.412Z,37.09
2018-07-08T12:08:06.387Z,37.57
2018-07-08T12:09:06.415Z,38.35
2018-07-08T12:10:06.424Z,38.17
2018-07-08T12:11:06.442Z,35.56
2018-07-08T12:12:06.458Z,34.69
2018-07-08T12:13:06.479Z,34.88
2018-07-08T12:14:06.506Z,35.07
2018-07-08T12:15:06.613Z,35.77
2018-07-08T12:16:06.629Z,35.67
2018-07-08T12:18:06.916Z,34.02
2018-07-08T12:19:07.061Z,34.02
2018-07-08T12:20:06.608Z,34.12
2018-07-08T12:21:06.674Z,34.70
2018-07-08T12:22:06.645Z,36.44
2018-07-08T12:23:06.656Z,35.96
2018-07-08T12:24:06.690Z,37.30
2018-07-08T12:25:06.698Z,37.98
2018-07-08T12:26:06.716Z,38.68
2018-07-08T12:27:06.812Z,38.39
2018-07-08T12:28:06.754Z,37.43
2018-07-08T12:29:06.769Z,36.95
2018-07-08T12:30:07.600Z,36.76
2018-07-08T12:31:06.870Z,36.18
2018-07-08T12:32:06.823Z,38.40
2018-07-08T12:33:06.840Z,36.77
2018-07-08T12:34:06.857Z,36.87
2018-07-08T12:35:07.184Z,38.62
2018-07-08T12:36:06.943Z,36.40
2018-07-08T12:37:06.916Z,35.41
2018-07-08T12:38:06.936Z,35.40
2018-07-08T12:39:07.077Z,36.38
2018-07-08T12:40:06.969Z,36.38
2018-07-08T12:41:06.993Z,37.47
2018-07-08T12:42:07.005Z,38.07
2018-07-08T12:43:07.024Z,35.16
2018-07-08T12:44:07.088Z,33.51
2018-07-08T12:45:07.119Z,33.61
2018-07-08T12:46:07.090Z,36.42
2018-07-08T12:47:07.102Z,33.90
2018-07-08T12:48:07.124Z,36.04
2018-07-08T12:49:07.144Z,36.30
2018-07-08T12:50:07.628Z,36.69
2018-07-08T12:51:07.186Z,37.28
2018-07-08T12:52:07.216Z,37.30
2018-07-08T12:53:07.234Z,37.20
2018-07-08T12:54:07.252Z,37.49
2018-07-08T12:55:07.275Z,37.49
2018-07-08T12:56:07.298Z,36.91
2018-07-08T12:57:07.321Z,37.59
2018-07-08T12:58:07.342Z,36.83
2018-07-08T12:59:07.366Z,38.09
2018-07-08T13:00:07.390Z,35.49